createdAt,value
2023-04-02T01:18:50.817Z,6.47
2023-04-02T01:21:53.913Z,6.87
2023-04-02T01:24:24.704Z,6.90
2023-04-02T01:26:58.839Z,6.53
2023-04-02T01:29:31.031Z,6.77
2023-04-02T01:32:02.561Z,6.67
2023-04-02T01:34:32.275Z,7.70
2023-04-02T01:37:17.929Z,6.53
2023-04-02T01:40:11.222Z,6.63
2023-04-02T01:42:46.734Z,6.90
2023-04-02T01:45:17.955Z,6.97
2023-04-02T01:47:46.736Z,7.17
2023-04-02T01:50:27.172Z,7.23
2023-04-02T01:52:57.735Z,7.13
2023-04-02T01:55:33.042Z,7.13
2023-04-02T01:58:03.873Z,7.57
2023-04-02T02:00:35.408Z,7.23
2023-04-02T02:03:03.804Z,7.17
2023-04-02T02:05:32.303Z,9.07
2023-04-02T02:08:02.292Z,10.90
2023-04-02T02:10:35.676Z,11.03
2023-04-02T02:13:04.815Z,10.93
2023-04-02T02:15:36.957Z,8.93
2023-04-02T02:18:07.145Z,8.50
2023-04-02T02:20:36.178Z,7.77
2023-04-02T02:23:05.546Z,8.37
2023-04-02T02:25:36.167Z,8.67
2023-04-02T02:28:08.945Z,8.37
2023-04-02T02:30:40.290Z,7.53
2023-04-02T02:33:16.461Z,6.13
2023-04-02T02:35:49.620Z,7.00
2023-04-02T02:38:42.098Z,6.53
2023-04-02T02:41:17.274Z,6.90
2023-04-02T02:43:54.226Z,6.00
2023-04-02T02:46:26.526Z,6.17
2023-04-02T02:48:56.476Z,6.70
2023-04-02T02:51:30.060Z,7.07
2023-04-02T02:54:03.472Z,8.47
2023-04-02T02:56:36.888Z,7.23
2023-04-02T02:59:08.186Z,6.73
2023-04-02T03:01:38.030Z,6.73
2023-04-02T03:04:06.824Z,7.07
2023-04-02T03:06:36.694Z,7.23
2023-04-02T03:09:13.949Z,8.03
2023-04-02T03:11:48.541Z,8.30
2023-04-02T03:14:24.100Z,7.90
2023-04-02T03:17:00.418Z,6.33
2023-04-02T03:19:33.830Z,7.20
2023-04-02T03:22:09.075Z,6.93
2023-04-02T03:24:43.250Z,7.33
2023-04-02T03:27:16.622Z,6.40
2023-04-02T03:29:51.941Z,6.83
2023-04-02T03:32:24.697Z,6.83
2023-04-02T03:34:56.541Z,6.67
2023-04-02T03:37:30.461Z,5.83
2023-04-02T03:40:04.628Z,6.23
2023-04-02T03:42:41.363Z,7.27
2023-04-02T03:45:17.681Z,6.50
2023-04-02T03:47:54.186Z,7.33
2023-04-02T03:50:28.595Z,7.40
2023-04-02T03:52:58.440Z,6.77
2023-04-02T03:55:29.881Z,6.93
2023-04-02T03:58:03.950Z,7.00
2023-04-02T04:00:37.508Z,6.97
2023-04-02T04:03:13.782Z,6.63
2023-04-02T04:05:49.506Z,6.63
2023-04-02T04:08:20.145Z,6.80
2023-04-02T04:10:53.559Z,7.37
2023-04-02T04:13:26.900Z,6.47
2023-04-02T04:15:59.561Z,6.60
2023-04-02T04:18:38.123Z,7.37
2023-04-02T04:21:15.597Z,8.33
2023-04-02T04:23:51.569Z,7.27
2023-04-02T04:26:25.291Z,5.72
2023-04-02T04:29:05.584Z,7.37
2023-04-02T04:31:39.428Z,6.37
2023-04-02T04:34:12.975Z,6.70
2023-04-02T04:36:54.427Z,6.97
2023-04-02T04:39:29.598Z,7.83
2023-04-02T04:42:00.714Z,7.07
2023-04-02T04:44:41.138Z,7.00
2023-04-02T04:47:14.840Z,6.30
2023-04-02T04:49:48.823Z,7.17
2023-04-02T04:52:21.692Z,7.73
2023-04-02T04:54:49.689Z,8.40
2023-04-02T04:57:29.370Z,7.77
2023-04-02T05:00:07.157Z,8.47
2023-04-02T05:02:42.192Z,8.23
2023-04-02T05:05:21.375Z,6.67
2023-04-02T05:07:52.531Z,7.47
2023-04-02T05:10:26.542Z,7.20
2023-04-02T05:12:58.181Z,7.80
2023-04-02T05:15:30.635Z,7.00
2023-04-02T05:18:18.930Z,7.80
2023-04-02T05:20:53.285Z,7.50
2023-04-02T05:23:27.095Z,6.47
2023-04-02T05:26:01.119Z,6.90
2023-04-02T05:28:36.140Z,6.67
2023-04-02T05:31:08.130Z,6.53
2023-04-02T05:33:38.038Z,6.67
2023-04-02T05:36:11.688Z,6.33
2023-04-02T05:38:46.416Z,5.90
2023-04-02T05:41:23.955Z,6.67
2023-04-02T05:44:00.125Z,6.70
2023-04-02T05:46:33.369Z,6.73
2023-04-02T05:49:01.941Z,5.60
2023-04-02T05:51:39.880Z,5.47
2023-04-02T05:54:17.900Z,5.73
2023-04-02T05:56:49.497Z,5.90
2023-04-02T05:59:22.795Z,5.97
2023-04-02T06:01:55.748Z,6.17
2023-04-02T06:04:29.915Z,5.33
2023-04-02T06:07:07.189Z,5.10
2023-04-02T06:09:43.324Z,5.23
2023-04-02T06:12:23.785Z,5.73
2023-04-02T06:14:51.952Z,5.90
2023-04-02T06:17:21.296Z,5.60
2023-04-02T06:19:50.034Z,6.73
2023-04-02T06:22:26.093Z,5.73
2023-04-02T06:25:01.680Z,5.70
2023-04-02T06:27:30.377Z,5.70
2023-04-02T06:30:03.751Z,5.53
2023-04-02T06:32:31.851Z,6.27
2023-04-02T06:34:59.971Z,6.40
2023-04-02T06:37:34.400Z,6.20
2023-04-02T06:40:03.834Z,6.33
2023-04-02T06:42:35.801Z,6.03
2023-04-02T06:45:04.296Z,5.03
2023-04-02T06:47:37.629Z,5.77
2023-04-02T06:50:11.468Z,6.40
2023-04-02T06:52:47.577Z,6.00
2023-04-02T06:55:31.147Z,6.03
2023-04-02T06:57:59.234Z,5.40
2023-04-02T07:00:32.269Z,5.83
2023-04-02T07:03:03.325Z,5.50
2023-04-02T07:05:31.629Z,5.80
2023-04-02T07:08:00.959Z,5.13
2023-04-02T07:10:28.861Z,5.90
2023-04-02T07:12:56.925Z,6.93
2023-04-02T07:15:25.541Z,5.27
2023-04-02T07:17:54.880Z,5.80
2023-04-02T07:20:29.106Z,6.07
2023-04-02T07:22:57.456Z,5.67
2023-04-02T07:25:27.752Z,5.30
2023-04-02T07:27:56.226Z,5.63
2023-04-02T07:30:24.258Z,6.07
2023-04-02T07:32:52.217Z,5.47
2023-04-02T07:35:20.391Z,5.30
2023-04-02T07:37:48.314Z,5.50
2023-04-02T07:40:19.050Z,5.53
2023-04-02T07:42:48.445Z,6.00
2023-04-02T07:45:16.727Z,6.03
2023-04-02T07:47:45.528Z,5.90
2023-04-02T07:50:13.488Z,5.93
2023-04-02T07:52:42.600Z,6.23
2023-04-02T07:55:12.582Z,7.00
2023-04-02T07:57:43.634Z,6.40
2023-04-02T08:00:15.659Z,5.63
2023-04-02T08:02:43.910Z,5.67
2023-04-02T08:05:12.130Z,6.27
2023-04-02T08:07:40.360Z,6.07
2023-04-02T08:10:09.994Z,7.37
2023-04-02T08:12:38.062Z,6.33
2023-04-02T08:15:07.494Z,6.67
2023-04-02T08:17:36.990Z,6.50
2023-04-02T08:20:06.692Z,6.50
2023-04-02T08:22:34.820Z,6.57
2023-04-02T08:25:02.731Z,6.93
2023-04-02T08:27:30.931Z,6.53
2023-04-02T08:29:59.125Z,6.87
2023-04-02T08:32:29.106Z,6.80
2023-04-02T08:34:58.418Z,6.87
2023-04-02T08:37:26.385Z,7.20
2023-04-02T08:39:54.314Z,6.67
2023-04-02T08:42:30.983Z,6.43
2023-04-02T08:45:25.134Z,6.33
2023-04-02T08:47:57.580Z,7.27
2023-04-02T08:50:32.173Z,7.03
2023-04-02T08:53:01.432Z,6.80
2023-04-02T08:55:36.544Z,6.60
2023-04-02T08:58:15.833Z,6.73
2023-04-02T09:00:46.588Z,6.97
2023-04-02T09:03:19.664Z,7.90
2023-04-02T09:05:52.141Z,6.33
2023-04-02T09:08:22.188Z,6.87
2023-04-02T09:10:55.029Z,6.97
2023-04-02T09:13:25.958Z,7.80
2023-04-02T09:15:59.766Z,7.73
2023-04-02T09:18:32.066Z,7.40
2023-04-02T09:21:04.962Z,7.87
2023-04-02T09:23:33.033Z,6.93
2023-04-02T09:26:04.141Z,6.93
2023-04-02T09:28:33.122Z,7.10
2023-04-02T09:31:07.403Z,6.93
2023-04-02T09:33:43.973Z,6.63
2023-04-02T09:36:27.761Z,7.43
2023-04-02T09:39:01.524Z,7.00
2023-04-02T09:41:31.354Z,7.07
2023-04-02T09:44:22.637Z,6.20
2023-04-02T09:47:04.046Z,6.97
2023-04-02T09:49:34.101Z,6.77
2023-04-02T09:52:28.372Z,7.03
2023-04-02T09:55:19.996Z,6.37
2023-04-02T09:57:49.307Z,7.13
2023-04-02T10:00:31.569Z,7.40
2023-04-02T10:03:04.710Z,6.63
2023-04-02T10:08:19.994Z,6.97
2023-04-02T10:10:50.909Z,7.63
2023-04-02T10:13:25.560Z,7.50
2023-04-02T10:15:58.552Z,7.27
2023-04-02T10:18:38.182Z,7.03
2023-04-02T10:21:07.763Z,6.73
2023-04-02T10:23:37.114Z,7.80
2023-04-02T10:26:21.239Z,6.90
2023-04-02T10:29:07.300Z,7.37
2023-04-02T10:31:41.609Z,7.40
2023-04-02T10:34:20.806Z,6.97
2023-04-02T10:36:52.705Z,7.30
2023-04-02T10:39:27.347Z,7.73
2023-04-02T10:42:03.782Z,6.83
2023-04-02T10:44:41.008Z,6.97
2023-04-02T10:47:28.694Z,7.30
2023-04-02T10:50:11.410Z,6.97
2023-04-02T10:52:44.607Z,7.27
2023-04-02T10:55:19.244Z,7.87
2023-04-02T10:57:47.758Z,7.70
2023-04-02T11:00:22.408Z,7.50
2023-04-02T11:02:54.158Z,7.20
2023-04-02T11:05:30.705Z,6.97
2023-04-02T11:08:05.697Z,6.70
2023-04-02T11:10:38.337Z,6.67
2023-04-02T11:13:15.498Z,6.73
2023-04-02T11:15:44.040Z,7.23
2023-04-02T11:18:24.823Z,7.17
2023-04-02T11:21:04.139Z,6.37
2023-04-02T11:23:35.638Z,7.47
2023-04-02T11:26:37.543Z,6.70
2023-04-02T11:29:17.780Z,7.23
2023-04-02T11:31:46.845Z,7.30
2023-04-02T11:34:17.207Z,7.40
2023-04-02T11:37:02.185Z,6.53
2023-04-02T11:39:53.715Z,6.83
2023-04-02T11:42:28.378Z,6.63
2023-04-02T11:45:01.130Z,6.97
2023-04-02T11:47:31.075Z,6.13
2023-04-02T11:50:07.948Z,6.97
2023-04-02T11:52:39.603Z,7.03
2023-04-02T11:55:24.362Z,6.47
2023-04-02T11:58:03.556Z,6.30
2023-04-02T12:00:54.848Z,6.00
2023-04-02T12:03:38.409Z,7.73
2023-04-02T12:06:13.413Z,8.50
2023-04-02T12:08:57.890Z,7.67
2023-04-02T12:11:34.630Z,8.13
2023-04-02T12:14:04.005Z,8.10
2023-04-02T12:16:36.538Z,7.30
2023-04-02T12:19:09.769Z,8.17
2023-04-02T12:21:39.108Z,7.33
2023-04-02T12:24:08.040Z,7.63
2023-04-02T12:26:38.443Z,7.77
2023-04-02T12:29:26.944Z,7.77
2023-04-02T12:31:57.876Z,7.10
2023-04-02T12:34:27.585Z,6.97
2023-04-02T12:36:59.685Z,7.73
2023-04-02T12:39:28.490Z,6.33
2023-04-02T12:41:57.251Z,8.37
2023-04-02T12:44:27.221Z,6.93
2023-04-02T12:46:57.833Z,7.07
2023-04-02T12:49:36.979Z,6.93
2023-04-02T12:52:07.813Z,7.23
2023-04-02T12:54:39.302Z,6.90
2023-04-02T12:57:39.994Z,7.27
2023-04-02T13:00:44.564Z,6.37
2023-04-02T13:03:22.502Z,6.90
2023-04-02T13:05:54.525Z,7.47
2023-04-02T13:08:26.194Z,7.03
2023-04-02T13:10:57.135Z,7.13
2023-04-02T13:13:30.254Z,6.93
2023-04-02T13:16:03.705Z,7.17
2023-04-02T13:18:34.697Z,7.40
2023-04-02T13:21:04.198Z,7.10
2023-04-02T13:23:37.782Z,7.10
2023-04-02T13:26:17.326Z,7.00
2023-04-02T13:28:56.602Z,6.23
2023-04-02T13:31:24.806Z,7.47
2023-04-02T13:33:54.225Z,7.17
2023-04-02T13:36:22.429Z,6.27
2023-04-02T13:38:50.617Z,6.27
2023-04-02T13:41:27.511Z,7.30
2023-04-02T13:43:56.703Z,7.23
2023-04-02T13:46:26.546Z,7.23
2023-04-02T13:48:56.857Z,6.70
2023-04-02T13:51:28.662Z,7.37
2023-04-02T13:53:58.831Z,6.47
2023-04-02T13:56:27.232Z,7.57
2023-04-02T13:58:55.324Z,7.83
2023-04-02T14:01:25.816Z,7.50
2023-04-02T14:03:58.089Z,6.73
2023-04-02T14:06:41.003Z,6.77
2023-04-02T14:09:18.823Z,7.10
2023-04-02T14:11:57.334Z,6.77
2023-04-02T14:14:50.641Z,6.80
2023-04-02T14:17:30.280Z,7.00
2023-04-02T14:20:17.543Z,7.53
2023-04-02T14:23:03.658Z,6.27
2023-04-02T14:25:39.311Z,5.87
2023-04-02T14:28:14.045Z,6.37
2023-04-02T14:30:52.130Z,6.67
2023-04-02T14:33:30.465Z,7.13
2023-04-02T14:36:11.657Z,6.20
2023-04-02T14:38:45.334Z,7.10
2023-04-02T14:41:19.942Z,7.23
2023-04-02T14:43:55.456Z,7.40
2023-04-02T14:46:27.611Z,7.57
2023-04-02T14:48:58.248Z,6.80
2023-04-02T14:51:34.070Z,7.70
2023-04-02T14:54:07.567Z,7.30
2023-04-02T14:56:41.784Z,7.00
2023-04-02T14:59:30.376Z,7.03
2023-04-02T15:02:03.565Z,7.07
2023-04-02T15:04:38.370Z,6.60
2023-04-02T15:07:18.923Z,6.53
2023-04-02T15:09:53.525Z,7.03
2023-04-02T15:12:25.016Z,7.07
2023-04-02T15:14:59.372Z,7.40
2023-04-02T15:17:27.767Z,6.67
2023-04-02T15:20:08.336Z,6.47
2023-04-02T15:22:47.870Z,7.37
2023-04-02T15:25:25.897Z,7.30
2023-04-02T15:28:04.616Z,7.10
2023-04-02T15:30:37.308Z,5.80
2023-04-02T15:33:37.984Z,7.13
2023-04-02T15:36:31.535Z,6.50
2023-04-02T15:39:15.349Z,7.10
2023-04-02T15:41:54.761Z,7.07
2023-04-02T15:44:22.816Z,6.87
2023-04-02T15:47:01.431Z,7.33
2023-04-02T15:49:43.019Z,6.83
2023-04-02T15:52:16.492Z,7.00
2023-04-02T15:55:09.815Z,7.00
2023-04-02T15:57:54.590Z,7.40
2023-04-02T16:00:26.753Z,7.13
2023-04-02T16:03:34.572Z,7.10
2023-04-02T16:06:17.260Z,7.03
2023-04-02T16:08:58.657Z,6.77
2023-04-02T16:11:28.337Z,7.23
2023-04-02T16:14:05.909Z,6.87
2023-04-02T16:16:36.219Z,7.83
2023-04-02T16:19:16.014Z,7.00
2023-04-02T16:21:50.161Z,6.87
2023-04-02T16:24:18.346Z,7.07
2023-04-02T16:26:57.950Z,7.07
2023-04-02T16:29:55.830Z,9.07
2023-04-02T16:32:43.791Z,6.97
2023-04-02T16:35:41.614Z,6.80
2023-04-02T16:38:22.444Z,7.30
2023-04-02T16:41:07.726Z,7.60
2023-04-02T16:43:48.889Z,7.43
2023-04-02T16:46:36.287Z,6.97
2023-04-02T16:49:20.861Z,7.00
2023-04-02T16:51:58.107Z,7.37
2023-04-02T16:54:32.890Z,7.33
2023-04-02T16:57:17.513Z,6.93
2023-04-02T16:59:56.233Z,6.37
2023-04-02T17:02:39.894Z,7.50
2023-04-02T17:05:23.463Z,6.23
2023-04-02T17:08:01.580Z,7.60
2023-04-02T17:10:32.271Z,6.77
2023-04-02T17:13:10.835Z,6.47
2023-04-02T17:15:41.941Z,6.93
2023-04-02T17:18:16.216Z,5.90
2023-04-02T17:20:44.769Z,7.30
2023-04-02T17:23:14.964Z,6.03
2023-04-02T17:25:48.876Z,7.20
2023-04-02T17:28:25.326Z,6.77
2023-04-02T17:30:57.415Z,7.07
2023-04-02T17:33:27.528Z,5.80
2023-04-02T17:36:22.294Z,6.87
2023-04-02T17:39:03.678Z,6.73
2023-04-02T17:41:37.985Z,7.17
2023-04-02T17:44:17.764Z,7.30
2023-04-02T17:46:58.525Z,6.93
2023-04-02T17:49:37.685Z,7.00
2023-04-02T17:52:13.826Z,6.37
2023-04-02T17:54:51.613Z,6.60
2023-04-02T17:57:38.750Z,6.50
2023-04-02T18:00:26.630Z,6.17
2023-04-02T18:03:11.272Z,6.07
2023-04-02T18:05:45.381Z,6.73
2023-04-02T18:08:22.760Z,6.70
2023-04-02T18:11:05.834Z,6.23
2023-04-02T18:13:36.315Z,6.67
2023-04-02T18:16:44.705Z,5.87
2023-04-02T18:19:18.074Z,6.17
2023-04-02T18:21:55.528Z,6.10
2023-04-02T18:24:47.498Z,6.70
2023-04-02T18:27:31.135Z,6.57
2023-04-02T18:30:12.379Z,6.07
2023-04-02T18:32:58.207Z,6.17
2023-04-02T18:35:32.755Z,5.47
2023-04-02T18:38:22.612Z,6.70
2023-04-02T18:41:04.085Z,5.80
2023-04-02T18:43:43.737Z,6.17
2023-04-02T18:46:23.397Z,5.70
2023-04-02T18:48:56.869Z,5.80
2023-04-02T18:51:27.701Z,6.43
2023-04-02T18:54:16.167Z,6.37
2023-04-02T18:56:44.132Z,5.40
2023-04-02T18:59:34.722Z,6.37
2023-04-02T19:02:23.420Z,6.53
2023-04-02T19:04:59.295Z,6.33
2023-04-02T19:07:31.024Z,6.63
2023-04-02T19:10:04.037Z,6.37
2023-04-02T19:12:33.947Z,5.67
2023-04-02T19:15:01.884Z,6.03
2023-04-02T19:17:34.945Z,5.30
2023-04-02T19:20:15.646Z,6.00
2023-04-02T19:22:58.150Z,6.33
2023-04-02T19:25:35.938Z,5.37
2023-04-02T19:28:09.536Z,5.37
2023-04-02T19:30:53.918Z,5.27
2023-04-02T19:33:35.931Z,5.93
2023-04-02T19:36:17.163Z,5.67
2023-04-02T19:39:01.742Z,5.10
2023-04-02T19:41:36.981Z,5.67
2023-04-02T19:44:10.693Z,5.93
2023-04-02T19:46:39.954Z,6.17
2023-04-02T19:49:11.621Z,6.10
2023-04-02T19:51:39.702Z,5.63
2023-04-02T19:54:08.962Z,5.50
2023-04-02T19:56:37.170Z,5.53
2023-04-02T19:59:17.061Z,5.67
2023-04-02T20:01:45.855Z,5.47
2023-04-02T20:04:13.909Z,5.33
2023-04-02T20:06:41.924Z,5.87
2023-04-02T20:09:11.268Z,5.67
2023-04-02T20:11:40.085Z,5.50
2023-04-02T20:14:07.986Z,5.57
2023-04-02T20:16:36.948Z,4.93
2023-04-02T20:19:04.943Z,5.73
2023-04-02T20:21:38.371Z,5.30
2023-04-02T20:24:07.168Z,5.53
2023-04-02T20:26:37.173Z,5.27
2023-04-02T20:29:05.262Z,5.93
2023-04-02T20:31:33.652Z,5.27
2023-04-02T20:34:02.699Z,5.60
2023-04-02T20:36:30.788Z,5.50
2023-04-02T20:38:58.890Z,5.07
2023-04-02T20:41:27.556Z,5.87
2023-04-02T20:43:56.883Z,6.00
2023-04-02T20:46:25.264Z,5.27
2023-04-02T20:48:53.225Z,6.13
2023-04-02T20:51:21.807Z,5.07
2023-04-02T20:53:49.804Z,5.97
2023-04-02T20:56:19.504Z,5.80
2023-04-02T20:58:47.591Z,5.83
2023-04-02T21:01:19.753Z,4.63
2023-04-02T21:03:48.162Z,5.90
2023-04-02T21:06:18.057Z,5.03
2023-04-02T21:08:46.191Z,5.13
2023-04-02T21:11:14.693Z,6.13
2023-04-02T21:13:44.277Z,6.60
2023-04-02T21:16:16.200Z,6.20
2023-04-02T21:18:46.047Z,5.67
2023-04-02T21:21:16.339Z,5.77
2023-04-02T21:23:45.618Z,5.50
2023-04-02T21:26:15.565Z,5.37
2023-04-02T21:28:44.494Z,5.97
2023-04-02T21:31:15.896Z,5.37
2023-04-02T21:33:47.380Z,5.30
2023-04-02T21:36:17.263Z,5.70
2023-04-02T21:38:46.757Z,6.07
2023-04-02T21:41:16.848Z,6.17
2023-04-02T21:43:46.029Z,5.43
2023-04-02T21:46:13.985Z,5.27
2023-04-02T21:48:42.093Z,5.57
2023-04-02T21:51:13.990Z,5.33
2023-04-02T21:53:43.229Z,5.33
2023-04-02T21:56:14.541Z,5.07
2023-04-02T21:58:43.457Z,5.53
2023-04-02T22:01:20.440Z,5.80
2023-04-02T22:03:54.465Z,5.17
2023-04-02T22:06:25.238Z,5.40
2023-04-02T22:08:54.985Z,5.57
2023-04-02T22:11:25.358Z,6.00
2023-04-02T22:13:53.567Z,5.33
2023-04-02T22:16:23.242Z,5.80
2023-04-02T22:18:52.857Z,5.57
2023-04-02T22:21:21.543Z,5.57
2023-04-02T22:23:51.041Z,5.23
2023-04-02T22:26:20.784Z,5.30
2023-04-02T22:28:48.745Z,5.33
2023-04-02T22:31:19.960Z,5.67
2023-04-02T22:33:48.895Z,6.03
2023-04-02T22:36:17.852Z,5.83
2023-04-02T22:38:46.026Z,5.50
2023-04-02T22:41:17.293Z,6.10
2023-04-02T22:43:46.628Z,5.53
2023-04-02T22:46:17.063Z,5.80
2023-04-02T22:48:46.380Z,5.53
2023-04-02T22:51:16.870Z,5.30
2023-04-02T22:53:45.621Z,5.23
2023-04-02T22:56:16.680Z,5.87
2023-04-02T22:58:45.173Z,4.77
2023-04-02T23:01:16.892Z,5.60
2023-04-02T23:03:44.856Z,5.93
2023-04-02T23:06:15.663Z,5.43
2023-04-02T23:08:44.024Z,6.20
2023-04-02T23:11:14.093Z,5.57
2023-04-02T23:13:43.831Z,5.67
2023-04-02T23:16:13.805Z,5.63
2023-04-02T23:18:43.092Z,5.63
2023-04-02T23:21:11.755Z,5.70
2023-04-02T23:23:39.706Z,6.47
2023-04-02T23:26:09.410Z,6.03
2023-04-02T23:28:38.384Z,5.97
2023-04-02T23:31:09.510Z,5.73
2023-04-02T23:33:37.544Z,5.43
2023-04-02T23:36:08.547Z,5.87
2023-04-02T23:38:36.602Z,5.27
2023-04-02T23:41:04.599Z,4.90
2023-04-02T23:43:32.655Z,5.97
2023-04-02T23:46:00.559Z,5.37
2023-04-02T23:48:29.843Z,6.47
2023-04-02T23:50:57.918Z,6.13
2023-04-02T23:53:26.000Z,5.73
2023-04-02T23:55:53.941Z,6.27
2023-04-02T23:58:21.902Z,5.67
